Time;durP1;ratioP1;P1;durP2;ratioP2;P2;SDS_P1;SDS_P2;PMS_P1;PMS_P2;Temp;Humidity;BMP_temperature;BMP_pressure;BME280_temperature;BME280_humidity;BME280_pressure;Samples;Min_cycle;Max_cycle;Signal;HPM_P1;HPM_P2
2021/11/25 00:01:20;;;;;;;21.50;15.50;;;;;;;6.21;56.94;100504.91;5046489;28;20060;-82
2021/11/25 00:03:46;;;;;;;22.48;16.73;;;;;;;5.14;57.31;100334.59;5029762;28;20021;-83
2021/11/25 00:06:11;;;;;;;18.40;14.25;;;;;;;5.49;57.10;100389.38;5030011;28;20434;-83
2021/11/25 00:08:37;;;;;;;20.50;14.52;;;;;;;5.46;57.62;100389.63;5031139;28;20116;-84
2021/11/25 00:11:02;;;;;;;20.73;14.32;;;;;;;5.75;57.51;100450.94;5031331;28;20030;-83
2021/11/25 00:13:28;;;;;;;18.60;13.35;;;;;;;6.05;57.75;100491.41;5029985;28;20017;-84
2021/11/25 00:15:53;;;;;;;19.17;13.13;;;;;;;5.53;57.44;100408.28;5030031;28;20033;-82
2021/11/25 00:18:19;;;;;;;16.58;13.30;;;;;;;6.03;57.21;100501.19;5033696;28;20059;-83
2021/11/25 00:20:46;;;;;;;14.82;12.30;;;;;;;5.21;57.62;100375.06;5050374;28;20032;-82
2021/11/25 00:23:11;;;;;;;15.32;12.15;;;;;;;5.58;57.68;100453.28;5033798;28;20116;-82
2021/11/25 00:25:37;;;;;;;17.75;12.93;;;;;;;5.02;57.43;100361.75;5033867;28;20083;-82
2021/11/25 00:28:02;;;;;;;19.40;14.38;;;;;;;4.98;57.61;100350.69;5033784;28;20022;-83
2021/11/25 00:30:28;;;;;;;18.05;13.52;;;;;;;5.71;57.81;100485.38;5035186;28;20025;-84
2021/11/25 00:32:53;;;;;;;17.17;12.05;;;;;;;4.99;57.41;100377.69;5050187;28;20026;-82
2021/11/25 00:35:19;;;;;;;17.27;12.13;;;;;;;5.82;57.38;100506.31;5050218;28;20438;-82
2021/11/25 00:37:44;;;;;;;14.93;11.80;;;;;;;5.83;57.33;100510.59;5050159;28;20148;-82
2021/11/25 00:40:13;;;;;;;19.65;13.50;;;;;;;5.43;57.47;100435.22;5033508;28;20029;-83
2021/11/25 00:42:39;;;;;;;18.00;13.40;;;;;;;5.32;57.65;100408.22;5033595;28;20025;-82
2021/11/25 00:45:05;;;;;;;14.30;11.63;;;;;;;5.81;57.49;100496.78;5033663;28;20112;-82
2021/11/25 00:47:31;;;;;;;15.30;11.35;;;;;;;5.09;57.36;100389.94;5050343;28;20477;-84
2021/11/25 00:49:56;;;;;;;14.75;11.60;;;;;;;5.52;57.70;100448.53;5035035;28;20053;-82
2021/11/25 00:52:24;;;;;;;14.32;10.73;;;;;;;4.57;57.52;100338.28;5034709;28;20022;-82
2021/11/25 00:54:50;;;;;;;14.00;11.70;;;;;;;5.23;57.40;100417.66;5034460;28;20124;-83
2021/11/25 00:57:15;;;;;;;11.13;9.80;;;;;;;4.96;57.59;100368.31;5033651;28;20506;-82
2021/11/25 00:59:41;;;;;;;11.85;9.85;;;;;;;4.76;57.47;100329.81;5035064;28;20036;-82
2021/11/25 01:02:06;;;;;;;13.38;10.60;;;;;;;3.63;57.37;100189.66;5034636;28;20033;-82
2021/11/25 01:04:32;;;;;;;14.00;10.43;;;;;;;4.78;57.34;100357.50;5033942;28;20053;-82
2021/11/25 01:06:58;;;;;;;14.15;10.30;;;;;;;4.96;57.49;100393.66;5033934;28;20099;-82
2021/11/25 01:09:23;;;;;;;10.65;9.15;;;;;;;5.53;57.44;100506.03;5035181;28;20489;-82
2021/11/25 01:11:49;;;;;;;13.73;10.20;;;;;;;4.77;57.64;100417.81;5035456;28;20057;-83
2021/11/25 01:14:15;;;;;;;10.93;9.03;;;;;;;5.04;57.44;100426.09;5036599;28;20082;-82
2021/11/25 01:16:42;;;;;;;14.07;9.65;;;;;;;4.51;57.56;100335.31;5033751;28;20029;-82
2021/11/25 01:19:07;;;;;;;10.95;9.25;;;;;;;4.73;57.73;100377.16;5035102;28;20029;-82
2021/11/25 01:21:33;;;;;;;11.88;8.75;;;;;;;5.08;57.62;100439.78;5035122;28;20080;-82
2021/11/25 01:23:58;;;;;;;12.90;10.20;;;;;;;4.71;57.59;100372.03;5036523;28;20038;-82
2021/11/25 01:26:24;;;;;;;13.13;9.27;;;;;;;4.62;57.79;100358.84;5036876;28;20031;-82
2021/11/25 01:28:49;;;;;;;11.93;9.30;;;;;;;4.84;58.12;100392.00;5035381;28;20022;-82
2021/11/25 01:31:15;;;;;;;13.53;10.07;;;;;;;5.39;57.75;100483.56;5036393;28;20494;-82
2021/11/25 01:33:40;;;;;;;12.17;9.47;;;;;;;4.09;57.80;100296.69;5035895;28;20025;-82
2021/11/25 01:36:06;;;;;;;11.90;9.50;;;;;;;5.00;57.77;100402.91;5035630;28;20037;-82
2021/11/25 01:38:32;;;;;;;14.90;9.75;;;;;;;3.59;57.48;100172.56;5034246;28;20029;-82
2021/11/25 01:40:57;;;;;;;12.83;9.97;;;;;;;5.29;57.77;100489.66;5035934;28;20029;-82
2021/11/25 01:43:25;;;;;;;13.57;10.82;;;;;;;5.14;57.70;100441.09;5038216;28;20037;-82
2021/11/25 01:45:55;;;;;;;13.33;9.20;;;;;;;4.06;57.43;100256.88;5053071;28;20037;-82
2021/11/25 01:48:21;;;;;;;11.90;10.37;;;;;;;5.26;57.82;100466.31;5040943;28;20040;-82
2021/11/25 01:50:49;;;;;;;15.27;11.30;;;;;;;4.63;57.90;100382.25;5057125;28;20076;-82
2021/11/25 01:53:16;;;;;;;16.00;10.10;;;;;;;5.25;57.70;100462.03;5046040;28;20089;-82
2021/11/25 01:55:42;;;;;;;15.70;11.23;;;;;;;4.16;57.54;100294.41;5043520;28;20425;-82
2021/11/25 01:58:08;;;;;;;15.93;12.30;;;;;;;5.15;57.65;100484.63;5044919;28;20052;-82
2021/11/25 02:00:46;;;;;;;13.97;10.90;;;;;;;4.79;57.86;100419.34;5042049;28;20107;-81
2021/11/25 02:03:12;;;;;;;14.27;10.83;;;;;;;4.82;58.02;100435.75;5042181;28;20022;-82
2021/11/25 02:05:37;;;;;;;34.27;20.97;;;;;;;4.82;58.31;100446.22;5042183;28;20036;-81
2021/11/25 02:08:04;;;;;;;19.13;13.03;;;;;;;5.08;58.16;100466.78;5041643;28;20044;-81
2021/11/25 02:10:30;;;;;;;13.80;11.03;;;;;;;4.66;58.04;100391.66;5042018;28;20029;-82
2021/11/25 02:12:56;;;;;;;14.93;10.77;;;;;;;4.62;58.32;100395.47;5042137;28;20106;-81
2021/11/25 02:15:21;;;;;;;15.57;9.90;;;;;;;4.50;57.83;100354.56;5041018;28;20494;-81
2021/11/25 02:17:47;;;;;;;18.33;11.13;;;;;;;4.73;58.10;100388.44;5042285;28;20442;-82
2021/11/25 02:20:14;;;;;;;12.73;9.53;;;;;;;5.21;57.80;100458.00;5042969;28;20052;-82
2021/11/25 02:22:41;;;;;;;12.97;10.60;;;;;;;5.22;57.95;100462.28;5049024;28;20029;-81
2021/11/25 02:25:09;;;;;;;14.10;10.53;;;;;;;5.21;57.84;100456.22;5042539;28;20059;-82
2021/11/25 02:27:34;;;;;;;12.67;9.83;;;;;;;4.35;57.82;100328.63;5041277;28;20036;-82
2021/11/25 02:30:00;;;;;;;13.40;9.53;;;;;;;3.57;57.61;100218.00;5039505;28;20056;-82
2021/11/25 02:32:32;;;;;;;14.83;9.60;;;;;;;4.44;57.65;100348.00;5037681;28;20383;-83
2021/11/25 02:34:57;;;;;;;16.83;9.38;;;;;;;4.30;57.76;100309.03;5039713;28;20033;-82
2021/11/25 02:37:23;;;;;;;12.33;8.73;;;;;;;5.00;58.03;100443.00;5039700;28;20059;-82
2021/11/25 02:39:49;;;;;;;14.77;9.33;;;;;;;4.41;57.75;100330.78;5039980;28;20032;-81
2021/11/25 02:42:16;;;;;;;14.37;9.83;;;;;;;4.98;57.76;100449.31;5040784;28;20033;-82
2021/11/25 02:44:42;;;;;;;11.37;9.37;;;;;;;4.37;58.07;100313.66;5043271;28;20034;-81
2021/11/25 02:47:09;;;;;;;14.17;10.63;;;;;;;3.69;57.82;100189.16;5039688;28;20053;-82
2021/11/25 02:49:34;;;;;;;14.53;10.40;;;;;;;4.88;57.86;100393.41;5056606;28;20120;-82
2021/11/25 02:52:00;;;;;;;16.42;11.43;;;;;;;3.63;57.74;100173.97;5041134;28;20029;-82
2021/11/25 02:54:25;;;;;;;16.08;11.57;;;;;;;4.37;57.51;100289.31;5039305;28;20033;-82
2021/11/25 02:56:51;;;;;;;15.55;10.70;;;;;;;4.88;57.93;100382.97;5037743;28;20018;-82
2021/11/25 02:59:17;;;;;;;15.82;10.82;;;;;;;4.81;57.89;100371.31;5041045;28;20120;-82
2021/11/25 03:01:43;;;;;;;13.37;10.30;;;;;;;5.00;57.94;100395.91;5042328;28;20112;-82
2021/11/25 03:04:09;;;;;;;19.97;12.53;;;;;;;4.84;57.76;100368.44;5042368;28;20525;-82
2021/11/25 03:06:35;;;;;;;31.83;17.00;;;;;;;5.27;58.09;100440.03;5040331;28;20036;-82
2021/11/25 03:09:03;;;;;;;20.73;13.57;;;;;;;3.96;57.98;100280.28;5039256;28;20036;-82
2021/11/25 03:11:30;;;;;;;15.27;11.47;;;;;;;4.82;57.83;100365.97;5037839;28;20025;-81
2021/11/25 03:13:58;;;;;;;13.67;9.83;;;;;;;3.81;58.15;100244.88;5034813;28;20593;-82
2021/11/25 03:16:25;;;;;;;13.97;11.57;;;;;;;5.32;57.84;100469.28;5050563;28;20061;-82
2021/11/25 03:18:51;;;;;;;17.47;10.87;;;;;;;5.12;57.94;100375.78;5032738;28;20037;-82
2021/11/25 03:21:18;;;;;;;14.97;11.67;;;;;;;5.25;58.25;100386.13;5034283;28;20152;-82
2021/11/25 03:23:45;;;;;;;14.75;11.68;;;;;;;5.08;57.63;100375.19;5032968;28;20032;-82
2021/11/25 03:26:13;;;;;;;17.03;12.20;;;;;;;5.00;58.03;100345.34;5033472;28;20033;-82
2021/11/25 03:28:43;;;;;;;15.10;11.83;;;;;;;4.87;57.83;100342.88;5033065;28;20037;-83
2021/11/25 03:31:10;;;;;;;16.93;12.30;;;;;;;3.94;57.85;100224.69;5033100;28;20047;-83
2021/11/25 03:33:36;;;;;;;16.80;12.20;;;;;;;5.55;57.83;100435.19;5032579;28;20453;-83
2021/11/25 03:36:05;;;;;;;16.88;13.15;;;;;;;4.18;57.91;100208.06;5031196;28;20053;-82
2021/11/25 03:38:30;;;;;;;16.30;13.80;;;;;;;5.61;57.82;100419.81;5033030;28;20041;-82
2021/11/25 03:40:57;;;;;;;17.80;13.30;;;;;;;5.63;58.10;100414.44;5032680;28;20056;-83
2021/11/25 03:43:23;;;;;;;18.27;12.93;;;;;;;4.63;57.89;100254.09;5047828;28;20108;-83
2021/11/25 03:45:48;;;;;;;16.67;12.50;;;;;;;5.00;58.01;100309.53;5031574;28;20517;-82
2021/11/25 03:48:14;;;;;;;16.60;11.07;;;;;;;5.63;58.29;100417.06;5031457;28;20021;-84
2021/11/25 03:50:40;;;;;;;17.53;13.27;;;;;;;4.82;58.22;100274.38;5031253;28;20029;-83
2021/11/25 03:53:07;;;;;;;16.90;12.65;;;;;;;5.61;58.50;100411.94;5031503;28;20030;-82
2021/11/25 03:55:33;;;;;;;17.15;11.65;;;;;;;4.42;58.35;100227.84;5032099;28;20108;-82
2021/11/25 03:57:58;;;;;;;15.02;12.02;;;;;;;5.35;58.51;100373.94;5031579;28;20060;-83
2021/11/25 04:00:24;;;;;;;16.07;12.27;;;;;;;4.11;58.43;100177.19;5030980;28;20064;-82
2021/11/25 04:02:51;;;;;;;16.27;12.40;;;;;;;5.66;58.39;100417.63;5030454;28;20034;-82
2021/11/25 04:05:18;;;;;;;15.82;11.85;;;;;;;5.71;58.58;100409.41;5030436;28;20035;-84
2021/11/25 04:07:44;;;;;;;18.65;13.98;;;;;;;5.72;58.68;100406.66;5030377;28;20026;-83
2021/11/25 04:10:11;;;;;;;19.93;14.00;;;;;;;5.15;58.66;100320.56;5030293;28;20461;-85
2021/11/25 04:12:36;;;;;;;19.60;12.50;;;;;;;5.62;58.66;100363.00;5046795;28;20030;-85
2021/11/25 04:15:04;;;;;;;17.17;13.20;;;;;;;5.70;58.83;100385.00;5030742;28;20026;-82
2021/11/25 04:17:29;;;;;;;16.60;12.77;;;;;;;5.75;58.95;100408.19;5031405;28;20025;-83
2021/11/25 04:19:55;;;;;;;17.27;13.18;;;;;;;5.43;58.47;100358.44;5031408;28;20088;-83
2021/11/25 04:22:21;;;;;;;17.20;12.15;;;;;;;4.80;58.58;100231.81;5029826;28;20033;-83
2021/11/25 04:24:52;;;;;;;16.77;12.48;;;;;;;5.37;58.60;100332.75;5031401;28;20024;-82
2021/11/25 04:27:17;;;;;;;20.30;12.25;;;;;;;5.78;58.84;100397.47;5029937;28;20032;-83
2021/11/25 04:29:49;;;;;;;19.15;12.82;;;;;;;5.67;58.98;100376.56;5029814;28;20029;-82
2021/11/25 04:37:44;;;;;;;18.02;13.00;;;;;;;5.16;58.81;100293.41;5032253;28;20568;-85
2021/11/25 04:40:11;;;;;;;19.95;15.00;;;;;;;5.20;58.83;100307.09;5030830;28;20041;-83
2021/11/25 04:42:36;;;;;;;19.63;14.57;;;;;;;5.48;58.76;100335.31;5030603;28;20025;-83
2021/11/25 04:45:03;;;;;;;22.95;15.20;;;;;;;5.51;58.47;100352.56;5030598;28;20033;-83
2021/11/25 04:47:29;;;;;;;22.67;15.35;;;;;;;5.39;58.75;100330.84;5029439;28;20556;-82
2021/11/25 04:49:54;;;;;;;20.83;14.07;;;;;;;5.70;59.05;100407.75;5029482;28;20021;-82
2021/11/25 04:52:20;;;;;;;19.58;14.52;;;;;;;5.28;59.11;100328.28;5029491;28;20041;-83
2021/11/25 04:54:45;;;;;;;41.20;28.20;;;;;;;5.13;59.00;100319.84;5030678;28;20110;-82
2021/11/25 04:57:10;;;;;;;48.85;29.60;;;;;;;4.15;59.15;100172.53;5031415;28;20479;-83
2021/11/25 04:59:36;;;;;;;28.25;20.95;;;;;;;4.25;59.63;100215.28;5031298;28;20021;-83
2021/11/25 05:02:02;;;;;;;30.00;20.15;;;;;;;5.08;59.72;100351.63;5031089;28;20529;-82
2021/11/25 05:04:27;;;;;;;26.45;18.48;;;;;;;4.68;59.71;100279.91;5036086;28;20466;-83
2021/11/25 05:06:53;;;;;;;18.35;14.73;;;;;;;4.13;59.65;100218.88;5035302;28;20025;-82
2021/11/25 05:09:18;;;;;;;16.67;13.80;;;;;;;3.94;59.24;100177.69;5034915;28;20029;-83
2021/11/25 05:11:44;;;;;;;19.03;14.20;;;;;;;3.06;59.54;100007.91;5036698;28;20026;-82
2021/11/25 05:14:10;;;;;;;20.30;14.57;;;;;;;5.07;59.64;100333.44;5034757;28;20029;-83
2021/11/25 05:16:35;;;;;;;19.70;14.05;;;;;;;5.34;59.72;100372.28;5051356;28;20025;-82
2021/11/25 05:19:01;;;;;;;22.70;16.77;;;;;;;4.04;59.22;100162.09;5034222;28;20112;-83
2021/11/25 05:21:26;;;;;;;24.85;19.42;;;;;;;4.81;59.69;100279.75;5034275;28;20030;-82
2021/11/25 05:23:51;;;;;;;31.05;22.23;;;;;;;5.38;59.52;100387.63;5035970;28;20482;-82
2021/11/25 05:26:17;;;;;;;25.00;18.95;;;;;;;4.97;59.51;100314.19;5033649;28;20037;-82
2021/11/25 05:28:43;;;;;;;24.47;18.90;;;;;;;4.79;59.37;100277.25;5035061;28;20461;-82
2021/11/25 05:31:08;;;;;;;24.88;18.08;;;;;;;4.70;59.56;100250.03;5033922;28;20516;-82
2021/11/25 05:33:34;;;;;;;30.75;22.77;;;;;;;4.34;59.53;100209.34;5035344;28;20025;-82
2021/11/25 05:35:59;;;;;;;25.80;20.25;;;;;;;4.61;59.80;100256.00;5034884;28;20068;-82
2021/11/25 05:38:25;;;;;;;27.85;21.30;;;;;;;5.13;59.73;100356.50;5050374;28;20036;-82
2021/11/25 05:40:50;;;;;;;27.73;21.23;;;;;;;5.41;59.40;100387.38;5035247;28;20445;-82
2021/11/25 05:43:16;;;;;;;30.67;22.40;;;;;;;5.34;59.81;100386.22;5035137;28;20021;-83
2021/11/25 05:45:41;;;;;;;28.10;22.53;;;;;;;4.01;59.72;100134.44;5033509;28;20029;-84
2021/11/25 05:48:07;;;;;;;35.00;24.58;;;;;;;5.39;59.91;100375.34;5033043;28;20032;-82
2021/11/25 05:50:32;;;;;;;38.50;28.87;;;;;;;5.31;59.54;100346.34;5034447;28;20033;-83
2021/11/25 05:52:59;;;;;;;50.22;33.75;;;;;;;5.59;59.68;100384.22;5033136;28;20395;-82
2021/11/25 05:55:27;;;;;;;56.87;35.33;;;;;;;5.30;60.04;100345.53;5034903;28;20025;-83
2021/11/25 05:57:53;;;;;;;48.30;33.70;;;;;;;5.12;59.65;100323.41;5034202;28;20120;-82
2021/11/25 06:00:19;;;;;;;55.63;33.27;;;;;;;5.61;59.83;100385.75;5033119;28;20029;-83
2021/11/25 06:02:46;;;;;;;60.53;39.57;;;;;;;5.63;59.57;100386.47;5049381;28;20025;-83
2021/11/25 06:05:16;;;;;;;57.03;39.73;;;;;;;5.61;59.85;100383.13;5049660;28;20029;-84
2021/11/25 06:07:45;;;;;;;48.00;34.42;;;;;;;5.62;59.86;100395.28;5034403;28;20060;-83
2021/11/25 06:10:12;;;;;;;47.40;35.60;;;;;;;5.62;59.59;100389.19;5033675;28;20492;-83
2021/11/25 06:12:38;;;;;;;53.55;36.42;;;;;;;4.93;59.87;100331.09;5049154;28;20022;-83
2021/11/25 06:15:05;;;;;;;49.65;36.00;;;;;;;5.34;59.60;100360.03;5033157;28;20395;-83
2021/11/25 06:17:30;;;;;;;50.25;35.42;;;;;;;4.89;59.60;100286.03;5032321;28;20041;-83
2021/11/25 06:19:56;;;;;;;39.67;27.80;;;;;;;4.74;60.02;100284.63;5032530;28;20042;-83
2021/11/25 06:22:23;;;;;;;40.78;26.55;;;;;;;5.53;59.83;100387.34;5033800;28;20418;-82
2021/11/25 06:24:48;;;;;;;35.28;24.42;;;;;;;5.25;59.56;100341.63;5049376;28;20022;-82
2021/11/25 06:27:14;;;;;;;30.02;22.50;;;;;;;3.92;59.57;100139.56;5032809;28;20550;-82
2021/11/25 06:29:40;;;;;;;33.30;25.55;;;;;;;4.09;59.73;100193.94;5032829;28;20469;-82
2021/11/25 06:32:06;;;;;;;33.15;24.33;;;;;;;5.04;59.55;100321.41;5032150;28;20043;-84
2021/11/25 06:34:31;;;;;;;34.25;24.63;;;;;;;4.83;59.64;100304.00;5032058;28;20067;-83
2021/11/25 06:36:56;;;;;;;28.00;22.08;;;;;;;4.65;59.91;100267.06;5032100;28;20056;-82
2021/11/25 06:39:22;;;;;;;31.87;23.30;;;;;;;4.06;59.50;100187.16;5033755;28;20474;-82
2021/11/25 06:41:48;;;;;;;27.40;19.00;;;;;;;4.35;59.85;100216.22;5032244;28;20120;-83
2021/11/25 06:44:13;;;;;;;31.43;22.53;;;;;;;4.73;59.63;100273.34;5032306;28;20021;-82
2021/11/25 06:46:39;;;;;;;42.40;29.23;;;;;;;5.26;59.86;100357.19;5032088;28;20025;-83
2021/11/25 06:49:05;;;;;;;35.25;24.85;;;;;;;4.59;59.80;100257.09;5033711;28;20033;-83
2021/11/25 06:51:31;;;;;;;52.17;34.40;;;;;;;4.72;59.41;100239.47;5042830;28;20175;-82
2021/11/25 06:53:56;;;;;;;72.20;46.10;;;;;;;5.10;59.65;100304.38;5037465;28;20533;-82
2021/11/25 06:56:22;;;;;;;53.23;36.83;;;;;;;5.72;59.04;100374.38;5047686;28;20025;-82
2021/11/25 06:58:50;;;;;;;49.00;33.67;;;;;;;5.68;59.31;100365.94;5047048;28;20044;-81
2021/11/25 07:01:15;;;;;;;46.63;33.42;;;;;;;5.52;59.13;100339.34;5052359;28;20032;-82
2021/11/25 07:03:41;;;;;;;47.78;32.65;;;;;;;5.93;59.18;100380.50;5049716;28;20035;-82
2021/11/25 07:06:06;;;;;;;45.80;32.58;;;;;;;5.69;59.20;100332.72;5044531;28;20060;-81
2021/11/25 07:08:32;;;;;;;40.83;30.42;;;;;;;4.97;58.74;100218.19;5036851;28;20040;-81
2021/11/25 07:10:58;;;;;;;46.33;30.95;;;;;;;6.06;59.11;100422.28;5048284;28;20036;-82
2021/11/25 07:13:27;;;;;;;34.47;26.17;;;;;;;5.64;59.03;100320.00;5059578;28;20025;-83
2021/11/25 07:15:52;;;;;;;37.55;28.35;;;;;;;5.80;59.28;100332.66;5039190;28;20028;-82
2021/11/25 07:18:18;;;;;;;39.03;27.65;;;;;;;6.17;59.03;100380.25;5038587;28;20453;-82
2021/11/25 07:20:43;;;;;;;35.90;25.73;;;;;;;5.86;59.19;100333.94;5041295;28;20029;-82
2021/11/25 07:23:09;;;;;;;37.10;26.65;;;;;;;5.82;58.92;100312.41;5038638;28;20516;-84
2021/11/25 07:25:34;;;;;;;36.13;25.67;;;;;;;5.90;59.37;100323.09;5047445;28;20087;-85
2021/11/25 07:28:00;;;;;;;37.70;26.63;;;;;;;6.02;59.11;100327.34;5040978;28;20022;-84
2021/11/25 07:30:25;;;;;;;33.53;24.75;;;;;;;6.20;58.74;100345.09;5031333;28;20038;-85
2021/11/25 07:32:51;;;;;;;36.78;26.98;;;;;;;6.14;58.39;100317.59;5030526;28;20061;-83
2021/11/25 07:35:21;;;;;;;39.78;26.27;;;;;;;6.43;58.87;100364.94;5042766;28;20033;-84
2021/11/25 07:37:50;;;;;;;37.30;26.05;;;;;;;6.54;58.46;100382.38;5042543;28;20455;-86
2021/11/25 07:40:16;;;;;;;34.05;26.30;;;;;;;6.11;58.15;100303.91;5049995;28;20032;-86
2021/11/25 07:42:41;;;;;;;32.30;24.58;;;;;;;6.24;58.35;100338.63;5051200;28;20025;-86
2021/11/25 07:45:08;;;;;;;36.50;25.55;;;;;;;5.91;58.65;100271.50;5055862;28;20036;-86
2021/11/25 07:47:34;;;;;;;33.90;24.17;;;;;;;6.11;58.57;100320.47;5058359;28;20067;-85
2021/11/25 07:50:11;;;;;;;35.65;24.83;;;;;;;6.24;58.54;100321.09;5058823;28;20035;-85
2021/11/25 07:52:38;;;;;;;32.33;22.38;;;;;;;6.67;58.36;100377.72;5036632;28;20051;-84
2021/11/25 07:55:06;;;;;;;31.20;20.83;;;;;;;5.96;58.91;100253.63;5049569;28;20025;-83
2021/11/25 07:57:32;;;;;;;29.63;19.63;;;;;;;6.52;58.27;100340.53;5049206;28;20033;-82
2021/11/25 07:59:58;;;;;;;28.00;21.05;;;;;;;5.91;58.70;100225.16;5058725;28;20039;-86
2021/11/25 08:02:23;;;;;;;29.75;20.13;;;;;;;6.37;59.09;100290.22;5053428;28;20049;-82
2021/11/25 08:04:49;;;;;;;26.67;20.38;;;;;;;5.94;58.93;100216.22;5045304;28;20539;-80
2021/11/25 08:07:15;;;;;;;27.95;19.92;;;;;;;6.41;58.47;100274.22;5043130;28;20047;-85
2021/11/25 08:09:40;;;;;;;27.33;19.85;;;;;;;7.05;58.73;100371.78;5028416;28;20029;-85
2021/11/25 08:12:07;;;;;;;22.65;16.98;;;;;;;7.11;58.95;100370.41;5029168;28;20135;-87
2021/11/25 08:14:32;;;;;;;17.90;15.25;;;;;;;6.57;58.74;100272.75;5035287;28;20494;-81
2021/11/25 08:16:59;;;;;;;21.65;16.80;;;;;;;5.56;58.90;100112.88;5043428;28;20025;-84
2021/11/25 08:19:27;;;;;;;23.17;18.45;;;;;;;7.25;58.26;100362.97;5049829;28;20459;-85
2021/11/25 08:21:53;;;;;;;22.75;18.50;;;;;;;6.84;58.48;100303.63;5037661;28;20025;-84
2021/11/25 08:24:19;;;;;;;26.67;19.67;;;;;;;6.60;58.32;100243.63;5030434;28;20040;-83
2021/11/25 08:26:45;;;;;;;23.23;17.55;;;;;;;7.33;59.14;100355.25;5029002;28;20029;-83
2021/11/25 08:29:10;;;;;;;23.90;17.48;;;;;;;6.91;58.38;100294.25;5042335;28;20101;-83
2021/11/25 08:31:36;;;;;;;23.60;17.55;;;;;;;7.51;58.76;100358.03;5059166;28;20066;-81
2021/11/25 08:34:02;;;;;;;21.73;17.23;;;;;;;7.18;58.62;100292.75;5054165;28;20055;-83
2021/11/25 08:36:28;;;;;;;20.45;16.92;;;;;;;7.68;58.33;100342.53;5052771;28;20083;-82
2021/11/25 08:38:54;;;;;;;22.63;16.25;;;;;;;7.73;57.87;100348.22;5034525;28;20033;-83
2021/11/25 08:41:19;;;;;;;23.63;17.35;;;;;;;7.30;58.29;100287.22;5033080;28;20029;-81
2021/11/25 08:43:45;;;;;;;18.00;12.93;;;;;;;7.78;58.25;100343.34;5036329;28;20419;-82
2021/11/25 08:46:11;;;;;;;18.63;14.18;;;;;;;7.46;57.71;100278.81;5036737;28;20032;-81
2021/11/25 08:48:37;;;;;;;18.23;13.73;;;;;;;7.03;57.76;100204.84;5052986;28;20497;-81
2021/11/25 08:51:03;;;;;;;15.23;12.20;;;;;;;7.08;57.39;100206.09;5035489;28;20082;-83
2021/11/25 08:53:31;;;;;;;15.02;11.85;;;;;;;7.72;57.56;100313.22;5037884;28;20139;-82
2021/11/25 08:55:57;;;;;;;17.13;12.73;;;;;;;6.81;57.41;100153.47;5062277;28;20036;-85
2021/11/25 08:58:22;;;;;;;14.68;12.18;;;;;;;8.01;57.00;100338.59;5036992;28;20109;-84
2021/11/25 09:00:48;;;;;;;16.30;11.10;;;;;;;7.60;57.19;100238.13;5041269;28;20028;-82
2021/11/25 09:03:14;;;;;;;11.73;9.68;;;;;;;7.58;57.11;100235.63;5037196;28;20040;-82
2021/11/25 09:05:40;;;;;;;11.45;9.43;;;;;;;8.16;56.63;100308.25;5032732;28;20429;-83
2021/11/25 09:08:05;;;;;;;11.85;9.18;;;;;;;7.25;56.03;100166.00;5038050;28;20091;-82
2021/11/25 09:10:33;;;;;;;9.32;7.82;;;;;;;8.15;55.81;100280.28;5033738;28;20157;-83
2021/11/25 09:13:01;;;;;;;10.75;8.75;;;;;;;8.44;55.67;100290.75;5044938;28;20028;-81
2021/11/25 09:15:27;;;;;;;12.57;9.63;;;;;;;8.41;55.69;100272.63;5033666;28;20033;-84
2021/11/25 09:17:52;;;;;;;11.77;9.13;;;;;;;7.77;55.49;100165.56;5033295;28;20175;-83
2021/11/25 09:20:18;;;;;;;11.95;9.75;;;;;;;7.94;55.08;100188.47;5033590;28;20147;-79
2021/11/25 09:22:43;;;;;;;8.77;5.35;;;;;;;7.53;54.04;100138.00;5042105;28;20029;-81
2021/11/25 09:25:09;;;;;;;6.53;4.82;;;;;;;8.70;53.77;100294.34;5046895;28;20579;-85
2021/11/25 09:27:34;;;;;;;6.47;5.47;;;;;;;8.38;53.50;100207.13;5045017;28;20045;-85
2021/11/25 09:30:00;;;;;;;7.03;6.28;;;;;;;7.96;53.45;100116.34;5044576;28;20038;-81
2021/11/25 09:32:26;;;;;;;8.07;6.72;;;;;;;8.59;52.96;100195.34;5038756;28;20078;-83
2021/11/25 09:34:53;;;;;;;6.78;5.68;;;;;;;8.68;52.90;100214.69;5060052;28;20101;-84
2021/11/25 09:37:18;;;;;;;8.90;6.25;;;;;;;8.77;53.17;100203.25;5040103;28;20470;-82
2021/11/25 09:39:44;;;;;;;6.93;5.80;;;;;;;9.05;52.81;100222.47;5048797;28;20103;-85
2021/11/25 09:42:10;;;;;;;8.25;5.53;;;;;;;8.60;52.52;100140.91;5044382;28;20071;-83
2021/11/25 09:44:35;;;;;;;5.45;3.90;;;;;;;8.18;52.41;100070.44;5047066;28;20035;-85
2021/11/25 09:47:01;;;;;;;5.72;4.38;;;;;;;9.17;51.61;100202.81;5033917;28;20501;-85
2021/11/25 09:49:28;;;;;;;6.72;5.18;;;;;;;9.25;51.45;100215.22;5032294;28;20091;-85
2021/11/25 09:51:55;;;;;;;5.43;4.40;;;;;;;9.59;50.93;100238.19;5032839;28;20540;-85
2021/11/25 09:54:21;;;;;;;5.28;4.03;;;;;;;9.40;50.64;100200.50;5043939;28;20053;-85
2021/11/25 09:56:48;;;;;;;6.50;5.05;;;;;;;9.71;50.38;100237.81;5035500;28;20028;-85
2021/11/25 09:59:13;;;;;;;6.97;4.28;;;;;;;9.74;50.46;100224.31;5039333;28;20035;-85
2021/11/25 10:01:39;;;;;;;7.03;4.85;;;;;;;9.81;50.32;100217.44;5045829;28;20021;-82
2021/11/25 10:04:05;;;;;;;10.05;6.07;;;;;;;9.76;49.75;100210.97;5033432;28;20061;-84
2021/11/25 10:06:33;;;;;;;8.93;6.75;;;;;;;8.90;50.07;100056.25;5066893;28;20042;-82
2021/11/25 10:09:00;;;;;;;10.05;6.80;;;;;;;9.70;49.99;100179.94;5040310;28;20017;-85
2021/11/25 10:11:39;;;;;;;7.30;5.07;;;;;;;9.84;49.42;100188.09;5051932;28;20033;-85
2021/11/25 10:14:12;;;;;;;5.22;4.57;;;;;;;9.30;49.38;100090.91;5034906;28;20037;-85
2021/11/25 10:16:44;;;;;;;6.28;5.38;;;;;;;10.04;48.99;100193.13;5050050;28;20406;-85
2021/11/25 10:19:17;;;;;;;7.47;4.13;;;;;;;10.07;48.78;100185.72;5031944;28;20031;-85
2021/11/25 10:21:58;;;;;;;6.40;4.57;;;;;;;10.07;48.99;100188.38;5032781;28;20033;-84
2021/11/25 10:24:35;;;;;;;6.43;4.05;;;;;;;9.42;48.32;100065.94;5035342;28;20053;-83
2021/11/25 10:27:25;;;;;;;11.98;8.10;;;;;;;9.57;47.73;100086.28;5054198;28;20036;-83
2021/11/25 10:30:17;;;;;;;16.08;7.00;;;;;;;10.14;48.66;100172.72;5057793;28;20032;-84
2021/11/25 10:32:56;;;;;;;7.25;5.10;;;;;;;9.30;47.78;100057.47;5054246;28;20025;-83
2021/11/25 10:35:33;;;;;;;7.72;5.35;;;;;;;9.92;48.35;100144.28;5052232;28;20044;-83
2021/11/25 10:40:27;;;;;;;9.27;5.97;;;;;;;9.08;47.73;99979.00;5060015;28;20028;-83
2021/11/25 10:42:52;;;;;;;6.53;5.15;;;;;;;9.77;47.87;100083.41;5072130;28;20134;-83
2021/11/25 10:45:20;;;;;;;5.88;4.50;;;;;;;10.22;47.88;100151.66;5041781;28;20109;-83
2021/11/25 10:48:04;;;;;;;6.05;5.15;;;;;;;9.85;47.76;100092.16;5050618;28;20025;-83
2021/11/25 10:50:32;;;;;;;6.70;5.00;;;;;;;10.06;47.67;100120.75;5048962;28;20556;-84
2021/11/25 10:53:09;;;;;;;3.80;3.30;;;;;;;9.39;47.54;100003.00;5034669;28;20029;-83
2021/11/25 10:55:35;;;;;;;4.03;2.75;;;;;;;10.12;47.65;100140.41;5031539;28;20112;-83
2021/11/25 10:58:03;;;;;;;2.30;2.10;;;;;;;9.74;47.34;100091.63;5033043;28;20187;-83
2021/11/25 11:00:34;;;;;;;2.47;2.08;;;;;;;9.35;47.74;100020.13;5049280;28;20040;-83
2021/11/25 11:03:22;;;;;;;4.00;2.58;;;;;;;9.96;47.84;100133.25;5048397;28;20060;-83
2021/11/25 11:05:55;;;;;;;2.42;2.22;;;;;;;9.85;48.00;100121.19;5036982;28;20045;-83
2021/11/25 11:08:22;;;;;;;4.30;2.80;;;;;;;9.80;47.95;100131.38;5037279;28;20332;-83
2021/11/25 11:11:00;;;;;;;4.95;4.45;;;;;;;9.14;48.21;100012.63;5045805;28;20026;-83
2021/11/25 11:18:53;;;;;;;5.13;4.10;;;;;;;9.14;48.48;99959.94;5050763;28;20504;-83
2021/11/25 11:21:39;;;;;;;8.15;3.78;;;;;;;10.07;47.99;100106.56;5033247;28;20020;-82
2021/11/25 11:24:07;;;;;;;4.20;3.33;;;;;;;10.12;48.28;100099.00;5041612;28;20029;-84
2021/11/25 11:26:40;;;;;;;5.55;2.88;;;;;;;10.11;47.70;100093.88;5040125;28;20035;-84
2021/11/25 11:29:06;;;;;;;4.95;2.85;;;;;;;10.13;47.67;100092.75;5045316;28;20541;-84
2021/11/25 11:31:33;;;;;;;3.42;3.13;;;;;;;10.13;47.37;100091.91;5048319;28;20112;-84
2021/11/25 11:34:01;;;;;;;3.58;3.28;;;;;;;9.91;47.25;100060.88;5041685;28;20025;-85